»·PEaware :: DAL420 KSMF-KPDX

DAL420 :: KSMF-KPDX

FLIGHT INFORMATION

Flight Status: Arrived
Operator:
Delta Air Lines
More flights by this operator :: More flights under this callsign
Pilot: Brian D. (32503)
Aircraft: BOEING 737-800
(B738)
More flights by this aircraft type
Origin: KSMF Sacramento Intl
United States
Destination: KPDX Portland Intl
United States
More flights between these airports :: More routes between these airports
Route: +KSMF RBL MACHU TMBRS2 KPDX
File this flight plan on PilotEdge
Remarks:
Altitude:
(Current/Filed)
36,000ft
Speed:
(Current/Filed)
458kts
Departed: 20-Nov-20 07:10 PM
Arrived: 20-Nov-20 08:37 PM
Distance/Time
Traveled:
416nm/1:26
Distance/Time
To Go:
Arrived

Flight Plot

Page will automatically refresh every two minutes.

Flight plan parsing failed; only flown route is shown


Map Options




Map Legend


Flown Route
Filed Route
Departure Airport
Arrival Airport
Navaid (VOR, NDB)
Fix

Horizontal Profiles

Position Reports

Time Latitude Longitude Heading Altitude Ground
Speed
20-Nov-20 18:27 38.695170 -121.593982 27 31ft 0kts
20-Nov-20 18:28 38.695170 -121.593982 27 31ft 0kts
20-Nov-20 18:29 38.695170 -121.593982 27 31ft 0kts
20-Nov-20 18:30 38.695170 -121.593982 27 31ft 0kts
20-Nov-20 18:31 38.695170 -121.593982 27 31ft 0kts
20-Nov-20 18:32 38.695170 -121.593982 27 31ft 0kts
20-Nov-20 18:33 38.695170 -121.593982 27 31ft 0kts
20-Nov-20 18:34 38.695170 -121.593982 27 31ft 0kts
20-Nov-20 18:35 38.695170 -121.593982 27 31ft 0kts
20-Nov-20 18:36 38.695170 -121.593982 27 31ft 0kts
20-Nov-20 18:37 38.695170 -121.593982 27 31ft 0kts
20-Nov-20 18:38 38.695170 -121.593982 27 31ft 0kts
20-Nov-20 18:39 38.695170 -121.593982 27 31ft 0kts
20-Nov-20 18:40 38.695170 -121.593982 27 31ft 0kts
20-Nov-20 18:41 38.695170 -121.593982 27 31ft 0kts
20-Nov-20 18:42 38.695170 -121.593982 27 32ft 0kts
20-Nov-20 18:43 38.695170 -121.593982 27 32ft 0kts
20-Nov-20 18:44 38.695170 -121.593982 27 32ft 0kts
20-Nov-20 18:45 38.695170 -121.593982 27 32ft 0kts
20-Nov-20 18:46 38.695170 -121.593982 27 32ft 0kts
20-Nov-20 18:47 38.695170 -121.593982 27 32ft 0kts
20-Nov-20 18:48 38.695170 -121.593982 27 32ft 0kts
20-Nov-20 18:49 38.695170 -121.593982 27 32ft 0kts
20-Nov-20 18:51 38.695170 -121.593982 27 32ft 0kts
20-Nov-20 18:52 38.695170 -121.593982 27 32ft 0kts
20-Nov-20 18:53 38.695170 -121.593982 27 32ft 0kts
20-Nov-20 18:54 38.695170 -121.593982 27 32ft 0kts
20-Nov-20 18:55 38.695170 -121.593982 27 32ft 0kts
20-Nov-20 18:56 38.695170 -121.593982 27 32ft 0kts
20-Nov-20 18:57 38.695170 -121.593982 27 32ft 0kts
20-Nov-20 18:58 38.695170 -121.593982 27 32ft 0kts
20-Nov-20 18:59 38.695170 -121.593982 27 32ft 0kts
20-Nov-20 19:00 38.694751 -121.594267 28 32ft 0kts
20-Nov-20 19:01 38.694531 -121.594419 28 32ft 4kts
20-Nov-20 19:02 38.694348 -121.594548 28 32ft 0kts
20-Nov-20 19:03 38.694348 -121.594548 28 32ft 0kts
20-Nov-20 19:04 38.694350 -121.594547 28 32ft 0kts
20-Nov-20 19:05 38.694497 -121.595207 272 32ft 16kts
20-Nov-20 19:06 38.697730 -121.598549 3 32ft 22kts
20-Nov-20 19:06 38.704043 -121.598501 0 32ft 32kts
20-Nov-20 19:08 38.707204 -121.599791 272 32ft 0kts
20-Nov-20 19:08 38.707205 -121.599805 272 32ft 0kts
20-Nov-20 19:10 38.694315 -121.601295 180 106ft 195kts
20-Nov-20 19:11 38.631452 -121.605674 184 4194ft 223kts
20-Nov-20 19:11 38.571075 -121.616560 190 5241ft 332kts
20-Nov-20 19:13 38.436227 -121.565412 75 13467ft 361kts
20-Nov-20 19:14 38.510829 -121.485045 22 17013ft 376kts
20-Nov-20 19:15 38.606609 -121.420654 22 19256ft 398kts
20-Nov-20 19:16 38.705327 -121.351737 22 22038ft 416kts
20-Nov-20 19:17 38.808708 -121.276458 23 24585ft 439kts
20-Nov-20 19:18 38.921240 -121.222909 352 26867ft 428kts
20-Nov-20 19:19 39.029469 -121.265321 319 28912ft 410kts
20-Nov-20 19:20 39.123099 -121.348534 317 31597ft 404kts
20-Nov-20 19:21 39.214575 -121.430272 316 34034ft 399kts
20-Nov-20 19:22 39.304860 -121.511219 316 36194ft 394kts
20-Nov-20 19:23 39.396042 -121.593426 316 36251ft 402kts
20-Nov-20 19:24 39.487523 -121.676125 316 36256ft 402kts
20-Nov-20 19:25 39.578666 -121.758889 316 36257ft 401kts
20-Nov-20 19:26 39.669727 -121.841845 316 36256ft 402kts
20-Nov-20 19:27 39.759226 -121.923984 317 36265ft 394kts
20-Nov-20 19:28 39.848853 -122.006032 318 36274ft 395kts
20-Nov-20 19:29 39.938686 -122.088519 318 36273ft 394kts
20-Nov-20 19:30 40.028224 -122.171021 318 36275ft 396kts
20-Nov-20 19:31 40.126700 -122.236731 337 36275ft 413kts
20-Nov-20 19:32 40.240084 -122.267962 340 36274ft 419kts
20-Nov-20 19:33 40.354655 -122.295647 341 36274ft 418kts
20-Nov-20 19:34 40.468836 -122.322657 341 36274ft 418kts
20-Nov-20 19:35 40.583180 -122.349641 341 36273ft 419kts
20-Nov-20 19:36 40.697316 -122.376591 341 36275ft 419kts
20-Nov-20 19:37 40.812084 -122.403792 341 36275ft 419kts
20-Nov-20 19:38 40.926564 -122.431007 341 36274ft 421kts
20-Nov-20 19:39 41.040911 -122.458243 343 36287ft 414kts
20-Nov-20 19:40 41.153579 -122.485213 345 36332ft 414kts
20-Nov-20 19:41 41.267000 -122.512453 345 36398ft 414kts
20-Nov-20 19:42 41.380027 -122.539707 345 36411ft 414kts
20-Nov-20 19:43 41.493243 -122.567096 346 36411ft 414kts
20-Nov-20 19:44 41.608810 -122.579904 352 36412ft 419kts
20-Nov-20 19:45 41.724394 -122.588017 353 36412ft 417kts
20-Nov-20 19:46 41.840363 -122.595760 353 36412ft 419kts
20-Nov-20 19:47 41.956591 -122.603401 353 36411ft 418kts
20-Nov-20 19:48 42.072555 -122.611048 353 36411ft 419kts
20-Nov-20 19:49 42.189423 -122.618766 352 36427ft 419kts
20-Nov-20 19:50 42.305508 -122.626517 353 36437ft 419kts
20-Nov-20 19:51 42.421686 -122.634268 353 36439ft 418kts
20-Nov-20 19:52 42.537858 -122.642060 353 36438ft 418kts
20-Nov-20 19:53 42.653902 -122.649904 353 36439ft 418kts
20-Nov-20 19:54 42.770095 -122.657766 352 36438ft 417kts
20-Nov-20 19:55 42.885831 -122.665631 352 36440ft 418kts
20-Nov-20 19:56 43.000816 -122.673488 351 36440ft 408kts
20-Nov-20 19:57 43.113123 -122.681199 351 36452ft 405kts
20-Nov-20 19:58 43.226306 -122.688984 351 36466ft 405kts
20-Nov-20 19:59 43.338793 -122.696724 351 36466ft 405kts
20-Nov-20 20:01 43.561640 -122.712141 351 36264ft 408kts
20-Nov-20 20:02 43.673968 -122.719894 351 35260ft 404kts
20-Nov-20 20:03 43.786536 -122.727748 351 33537ft 415kts
20-Nov-20 20:04 43.900855 -122.735583 351 29532ft 396kts
20-Nov-20 20:05 44.012728 -122.743447 352 27315ft 393kts
20-Nov-20 20:06 44.119388 -122.750985 352 25119ft 391kts
20-Nov-20 20:07 44.222047 -122.740351 358 24482ft 333kts
20-Nov-20 20:08 44.312644 -122.732223 358 23987ft 323kts
20-Nov-20 20:09 44.399548 -122.724470 358 23008ft 319kts
20-Nov-20 20:10 44.487635 -122.716599 358 22004ft 314kts
20-Nov-20 20:11 44.574109 -122.708854 358 21004ft 310kts
20-Nov-20 20:12 44.659745 -122.701165 358 20000ft 306kts
20-Nov-20 20:13 44.744133 -122.693572 359 18997ft 302kts
20-Nov-20 20:14 44.826575 -122.685950 359 18002ft 299kts
20-Nov-20 20:15 44.909107 -122.677601 0 16053ft 313kts
20-Nov-20 20:16 45.000949 -122.668312 1 12486ft 338kts
20-Nov-20 20:17 45.089841 -122.659226 1 10892ft 297kts
20-Nov-20 20:18 45.167568 -122.651328 1 9885ft 265kts
20-Nov-20 20:19 45.239596 -122.645237 354 8877ft 254kts
20-Nov-20 20:20 45.306723 -122.674255 337 8596ft 254kts
20-Nov-20 20:21 45.372679 -122.710530 338 8234ft 253kts
20-Nov-20 20:22 45.437735 -122.746242 338 7231ft 250kts
20-Nov-20 20:23 45.501648 -122.781402 338 5906ft 250kts
20-Nov-20 20:24 45.562344 -122.815318 333 4989ft 215kts
20-Nov-20 20:25 45.600803 -122.875775 301 4699ft 204kts
20-Nov-20 20:26 45.632620 -122.944601 323 3466ft 193kts
20-Nov-20 20:27 45.680169 -122.946147 5 3491ft 152kts
20-Nov-20 20:28 45.712787 -122.920843 83 3442ft 154kts
20-Nov-20 20:29 45.695600 -122.871486 110 3296ft 131kts
20-Nov-20 20:30 45.685451 -122.821589 122 3286ft 132kts
20-Nov-20 20:31 45.663695 -122.778999 115 2891ft 129kts
20-Nov-20 20:32 45.647494 -122.732408 114 2370ft 126kts
20-Nov-20 20:33 45.631415 -122.686802 120 2316ft 129kts
20-Nov-20 20:34 45.607344 -122.649978 133 1201ft 134kts
20-Nov-20 20:35 45.589771 -122.607762 118 32ft 54kts
20-Nov-20 20:36 45.589879 -122.604021 45 32ft 18kts
20-Nov-20 20:37 45.590903 -122.596365 17 35ft 0kts
20-Nov-20 20:38 45.590924 -122.596355 17 35ft 0kts
20-Nov-20 20:39 45.590924 -122.596355 17 35ft 0kts

Navigation Log

Ident Type
Flight plan parsing failed, navigation log unavailable